Time;durP1;ratioP1;P1;durP2;ratioP2;P2;SDS_P1;SDS_P2;PMS_P1;PMS_P2;Temp;Humidity;BMP_temperature;BMP_pressure;BME280_temperature;BME280_humidity;BME280_pressure;Samples;Min_cycle;Max_cycle;Signal;HPM_P1;HPM_P2
2022/01/23 00:02:21;;;;;;;27.47;20.00;;;;;;;;;;4959227;28;20191;-76
2022/01/23 00:04:47;;;;;;;28.37;18.70;;;;;;;;;;4968731;28;20181;-76
2022/01/23 00:07:14;;;;;;;26.27;18.73;;;;;;;;;;4968379;28;20212;-76
2022/01/23 00:09:40;;;;;;;29.73;18.60;;;;;;;;;;4975661;28;20181;-76
2022/01/23 00:12:12;;;;;;;29.70;21.63;;;;;;;;;;4970597;28;20187;-76
2022/01/23 00:17:24;;;;;;;28.87;19.63;;;;;;;;;;4975154;28;20220;-76
2022/01/23 00:19:54;;;;;;;30.53;20.43;;;;;;;;;;4971618;28;20176;-76
2022/01/23 00:22:23;;;;;;;28.50;19.50;;;;;;;;;;4976417;28;20264;-76
2022/01/23 00:30:28;;;;;;;27.27;19.30;;;;;;;;;;4965020;28;20188;-77
2022/01/23 00:32:56;;;;;;;30.90;20.63;;;;;;;;;;4968836;28;20179;-77
2022/01/23 00:35:23;;;;;;;28.73;19.60;;;;;;;;;;4961953;28;20184;-77
2022/01/23 00:37:51;;;;;;;28.37;21.27;;;;;;;;;;4970085;28;20205;-76
2022/01/23 00:40:22;;;;;;;28.83;19.67;;;;;;;;;;4972318;28;20188;-76
2022/01/23 00:42:48;;;;;;;27.67;19.37;;;;;;;;;;4970524;28;20184;-76
2022/01/23 00:47:53;;;;;;;28.77;19.43;;;;;;;;;;4952483;29;20204;-76
2022/01/23 00:50:19;;;;;;;29.27;18.97;;;;;;;;;;4957220;28;20666;-76
2022/01/23 00:52:46;;;;;;;30.37;19.13;;;;;;;;;;4989552;28;20175;-77
2022/01/23 00:55:12;;;;;;;27.30;18.13;;;;;;;;;;4959103;28;20197;-77
2022/01/23 00:57:38;;;;;;;31.17;21.00;;;;;;;;;;4971736;28;20196;-77
2022/01/23 01:00:06;;;;;;;28.40;19.43;;;;;;;;;;4970943;28;20188;-77
2022/01/23 01:02:32;;;;;;;28.27;18.40;;;;;;;;;;4972799;28;20655;-77
2022/01/23 01:04:58;;;;;;;28.03;19.17;;;;;;;;;;4972204;28;20185;-76
2022/01/23 01:07:24;;;;;;;25.70;18.30;;;;;;;;;;4958574;28;20216;-76
2022/01/23 01:09:53;;;;;;;26.90;19.03;;;;;;;;;;4950961;29;20741;-76
2022/01/23 01:12:25;;;;;;;30.80;19.80;;;;;;;;;;4967320;28;20173;-76
2022/01/23 01:17:26;;;;;;;27.03;18.97;;;;;;;;;;4981691;28;20200;-76
2022/01/23 01:30:16;;;;;;;25.90;18.13;;;;;;;;;;4989477;28;20247;-76
2022/01/23 01:33:58;;;;;;;28.07;19.77;;;;;;;;;;4991342;28;20188;-76
2022/01/23 01:36:45;;;;;;;27.57;19.17;;;;;;;;;;4974000;28;20223;-76
2022/01/23 01:39:11;;;;;;;30.27;19.93;;;;;;;;;;4974648;28;20184;-75
2022/01/23 01:41:39;;;;;;;32.93;20.97;;;;;;;;;;4989642;28;20192;-75
2022/01/23 01:44:06;;;;;;;31.03;20.00;;;;;;;;;;4969267;28;20193;-75
2022/01/23 01:46:45;;;;;;;28.67;19.83;;;;;;;;;;4968659;28;20670;-75
2022/01/23 01:49:12;;;;;;;28.47;17.93;;;;;;;;;;4965404;28;20606;-76
2022/01/23 01:51:39;;;;;;;28.33;19.73;;;;;;;;;;4974843;28;20235;-76
2022/01/23 01:54:19;;;;;;;28.67;18.73;;;;;;;;;;4958613;28;20640;-76
2022/01/23 01:56:52;;;;;;;27.40;18.47;;;;;;;;;;4974709;28;20662;-76
2022/01/23 01:59:47;;;;;;;30.63;20.40;;;;;;;;;;4983055;28;20192;-76
2022/01/23 02:02:48;;;;;;;26.23;17.83;;;;;;;;;;4978266;28;20244;-76
2022/01/23 02:10:50;;;;;;;26.03;18.77;;;;;;;;;;4985957;28;20275;-75
2022/01/23 02:13:21;;;;;;;25.17;18.30;;;;;;;;;;4992398;28;20187;-76
2022/01/23 02:24:22;;;;;;;27.20;17.30;;;;;;;;;;4972015;28;20255;-77
2022/01/23 02:57:08;;;;;;;28.97;21.13;;;;;;;;;;4994953;28;20290;-77
2022/01/23 02:59:38;;;;;;;27.50;19.07;;;;;;;;;;4974048;28;20300;-77
2022/01/23 03:05:01;;;;;;;29.30;20.70;;;;;;;;;;4992432;28;20173;-77
2022/01/23 03:07:59;;;;;;;28.17;19.23;;;;;;;;;;4970959;28;20210;-77
2022/01/23 03:10:29;;;;;;;29.20;20.40;;;;;;;;;;4970150;28;20180;-77
2022/01/23 03:31:27;;;;;;;29.43;18.37;;;;;;;;;;4986672;28;20200;-76
2022/01/23 03:33:53;;;;;;;34.40;21.80;;;;;;;;;;4987988;28;20168;-82
2022/01/23 03:36:19;;;;;;;31.20;20.83;;;;;;;;;;4997467;28;20216;-82
2022/01/23 03:38:45;;;;;;;32.03;21.20;;;;;;;;;;4988520;28;20207;-82
2022/01/23 03:41:12;;;;;;;32.50;21.37;;;;;;;;;;4973036;28;20215;-82
2022/01/23 03:43:40;;;;;;;33.33;21.13;;;;;;;;;;4972542;28;20192;-81
2022/01/23 03:51:22;;;;;;;30.47;21.07;;;;;;;;;;4958400;28;20196;-81
2022/01/23 03:53:51;;;;;;;32.73;20.47;;;;;;;;;;4980066;28;20230;-81
2022/01/23 03:56:22;;;;;;;28.57;19.37;;;;;;;;;;4991975;28;20203;-80
2022/01/23 03:58:48;;;;;;;32.13;21.77;;;;;;;;;;4961403;28;20188;-81
2022/01/23 04:01:19;;;;;;;33.30;21.73;;;;;;;;;;4959362;28;20200;-81
2022/01/23 04:03:48;;;;;;;30.30;20.37;;;;;;;;;;4962229;28;20195;-81
2022/01/23 04:06:14;;;;;;;29.93;21.00;;;;;;;;;;4975068;28;20495;-81
2022/01/23 04:08:43;;;;;;;31.50;22.00;;;;;;;;;;4992757;28;20191;-81
2022/01/23 04:11:09;;;;;;;34.60;22.07;;;;;;;;;;4963290;28;20215;-79
2022/01/23 04:13:55;;;;;;;31.97;21.43;;;;;;;;;;4984907;28;20519;-79
2022/01/23 04:17:03;;;;;;;32.57;21.73;;;;;;;;;;4978297;28;20869;-80
2022/01/23 04:19:41;;;;;;;32.53;21.13;;;;;;;;;;4986190;28;20680;-81
2022/01/23 05:00:49;;;;;;;29.83;19.97;;;;;;;;;;4980109;28;20180;-81
2022/01/23 05:06:22;;;;;;;31.53;21.03;;;;;;;;;;4981594;28;20671;-81
2022/01/23 05:08:55;;;;;;;34.03;22.77;;;;;;;;;;4974436;28;20176;-81
2022/01/23 05:11:31;;;;;;;33.53;22.20;;;;;;;;;;4961303;28;20185;-81
2022/01/23 05:14:07;;;;;;;34.57;22.40;;;;;;;;;;4975386;28;20191;-81
2022/01/23 05:16:34;;;;;;;31.67;22.10;;;;;;;;;;4959668;28;20876;-81
2022/01/23 05:19:01;;;;;;;34.00;21.77;;;;;;;;;;4988182;28;20179;-81
2022/01/23 05:21:58;;;;;;;31.30;20.33;;;;;;;;;;4986795;28;20198;-82
2022/01/23 05:24:30;;;;;;;33.77;22.63;;;;;;;;;;4975126;28;20197;-81
2022/01/23 05:27:00;;;;;;;34.77;22.23;;;;;;;;;;4988119;28;20316;-81
2022/01/23 05:29:27;;;;;;;35.97;22.43;;;;;;;;;;4976519;28;20549;-81
2022/01/23 05:31:53;;;;;;;33.17;22.17;;;;;;;;;;4978443;28;20180;-80
2022/01/23 05:34:21;;;;;;;34.57;21.33;;;;;;;;;;5007000;28;20188;-80
2022/01/23 05:36:48;;;;;;;35.03;23.13;;;;;;;;;;4958548;28;20279;-80
2022/01/23 05:39:18;;;;;;;34.63;22.27;;;;;;;;;;4977307;28;20189;-80
2022/01/23 05:41:44;;;;;;;33.93;22.90;;;;;;;;;;4976290;28;20196;-80
2022/01/23 05:44:10;;;;;;;37.17;22.40;;;;;;;;;;4979415;28;20299;-80
2022/01/23 05:46:37;;;;;;;31.43;20.60;;;;;;;;;;4994849;28;20268;-80
2022/01/23 05:49:12;;;;;;;32.97;21.50;;;;;;;;;;4982907;28;20183;-80
2022/01/23 05:51:58;;;;;;;34.43;23.23;;;;;;;;;;4997584;28;20595;-79
2022/01/23 05:54:54;;;;;;;34.67;22.73;;;;;;;;;;4992061;28;20551;-79
2022/01/23 05:57:46;;;;;;;33.77;21.67;;;;;;;;;;4979842;28;20211;-79
2022/01/23 06:00:20;;;;;;;33.27;22.40;;;;;;;;;;4976050;28;20180;-80
2022/01/23 06:02:53;;;;;;;32.20;21.80;;;;;;;;;;4989065;28;20244;-81
2022/01/23 06:05:25;;;;;;;31.90;21.47;;;;;;;;;;4980276;28;20219;-82
2022/01/23 06:07:57;;;;;;;34.13;21.57;;;;;;;;;;4969810;28;20232;-81
2022/01/23 06:10:26;;;;;;;33.33;22.37;;;;;;;;;;4974636;28;20212;-82
2022/01/23 06:12:53;;;;;;;35.10;22.67;;;;;;;;;;4963257;28;20185;-81
2022/01/23 06:15:19;;;;;;;34.07;21.60;;;;;;;;;;4977978;28;20211;-81
2022/01/23 06:17:45;;;;;;;38.43;23.30;;;;;;;;;;4971921;28;20236;-85
2022/01/23 06:20:30;;;;;;;35.60;23.10;;;;;;;;;;5002995;28;20193;-80
2022/01/23 06:23:15;;;;;;;37.07;23.03;;;;;;;;;;4979985;28;20181;-81
2022/01/23 06:26:04;;;;;;;34.67;22.57;;;;;;;;;;4988955;28;20224;-81
2022/01/23 06:28:44;;;;;;;37.00;23.43;;;;;;;;;;4980016;28;20187;-80
2022/01/23 06:31:10;;;;;;;36.30;22.83;;;;;;;;;;4998235;28;20180;-80
2022/01/23 06:33:37;;;;;;;35.43;21.80;;;;;;;;;;4984632;28;20176;-80
2022/01/23 06:36:04;;;;;;;34.83;22.33;;;;;;;;;;4934181;28;1135959;-80
2022/01/23 06:38:30;;;;;;;39.63;24.30;;;;;;;;;;4975201;28;20200;-82
2022/01/23 06:40:58;;;;;;;35.27;23.83;;;;;;;;;;4942987;28;20290;-82
2022/01/23 06:43:42;;;;;;;37.37;22.73;;;;;;;;;;4977674;28;20187;-81
2022/01/23 06:46:14;;;;;;;35.00;21.77;;;;;;;;;;4965220;28;20216;-81
2022/01/23 06:48:41;;;;;;;38.40;24.60;;;;;;;;;;4961227;28;20184;-81
2022/01/23 06:51:07;;;;;;;35.00;23.03;;;;;;;;;;4978472;28;20317;-81
2022/01/23 06:53:34;;;;;;;36.53;23.43;;;;;;;;;;4986099;28;20207;-80
2022/01/23 06:56:01;;;;;;;33.47;23.07;;;;;;;;;;4960227;28;20190;-82
2022/01/23 06:58:27;;;;;;;37.63;23.50;;;;;;;;;;4960146;28;20659;-83
2022/01/23 07:00:54;;;;;;;37.70;24.00;;;;;;;;;;4981253;28;20192;-79
2022/01/23 07:03:41;;;;;;;40.30;24.80;;;;;;;;;;4977693;28;20193;-82
2022/01/23 07:06:26;;;;;;;37.43;24.77;;;;;;;;;;4987090;28;20223;-84
2022/01/23 07:09:16;;;;;;;38.30;24.37;;;;;;;;;;4958897;28;20177;-83
2022/01/23 07:12:01;;;;;;;38.70;24.70;;;;;;;;;;4994585;28;20176;-85
2022/01/23 07:14:46;;;;;;;36.87;24.53;;;;;;;;;;4991951;28;20247;-81
2022/01/23 07:17:31;;;;;;;40.87;24.53;;;;;;;;;;4983756;28;20204;-79
2022/01/23 07:20:03;;;;;;;38.03;24.40;;;;;;;;;;4974667;28;20197;-79
2022/01/23 07:22:34;;;;;;;37.40;23.90;;;;;;;;;;4984052;28;20292;-74
2022/01/23 07:25:03;;;;;;;42.60;26.07;;;;;;;;;;4966200;28;20188;-76
2022/01/23 07:27:35;;;;;;;36.93;24.00;;;;;;;;;;4955662;28;20209;-77
2022/01/23 07:30:01;;;;;;;39.23;24.80;;;;;;;;;;4967123;28;20188;-76
2022/01/23 07:32:29;;;;;;;36.53;23.83;;;;;;;;;;4975154;28;20169;-77
2022/01/23 07:34:55;;;;;;;35.00;23.73;;;;;;;;;;4964472;28;20184;-77
2022/01/23 07:37:22;;;;;;;42.73;26.20;;;;;;;;;;4966997;28;20227;-77
2022/01/23 07:39:54;;;;;;;38.80;25.57;;;;;;;;;;4988010;28;20939;-77
2022/01/23 07:42:24;;;;;;;38.13;24.20;;;;;;;;;;4949245;28;20935;-77
2022/01/23 07:44:59;;;;;;;43.53;26.07;;;;;;;;;;4966640;28;20176;-77
2022/01/23 07:47:46;;;;;;;41.77;25.87;;;;;;;;;;4956038;28;20212;-77
2022/01/23 07:50:18;;;;;;;40.67;27.23;;;;;;;;;;4970294;28;20189;-77
2022/01/23 07:53:15;;;;;;;38.43;25.17;;;;;;;;;;4951529;28;20201;-77
2022/01/23 07:56:02;;;;;;;42.80;26.40;;;;;;;;;;4966755;28;20201;-77
2022/01/23 07:58:48;;;;;;;41.20;26.13;;;;;;;;;;4967286;28;20227;-77
2022/01/23 08:01:50;;;;;;;41.43;25.07;;;;;;;;;;4977616;28;20267;-76
2022/01/23 08:04:40;;;;;;;35.47;22.97;;;;;;;;;;4952067;29;20185;-77
2022/01/23 08:07:20;;;;;;;42.43;25.43;;;;;;;;;;4985232;28;20703;-77
2022/01/23 08:10:07;;;;;;;34.17;22.47;;;;;;;;;;4967513;28;20232;-79
2022/01/23 08:12:33;;;;;;;36.00;23.40;;;;;;;;;;4962401;28;20177;-77
2022/01/23 08:15:00;;;;;;;40.23;24.30;;;;;;;;;;4971310;28;20705;-78
2022/01/23 08:17:26;;;;;;;37.13;23.63;;;;;;;;;;4972605;28;20196;-77
2022/01/23 08:19:53;;;;;;;37.53;24.87;;;;;;;;;;4972506;28;20181;-78
2022/01/23 08:22:20;;;;;;;40.00;26.53;;;;;;;;;;4959947;28;20188;-78
2022/01/23 08:24:47;;;;;;;41.73;27.43;;;;;;;;;;4956024;28;20193;-78
2022/01/23 08:27:13;;;;;;;39.43;24.67;;;;;;;;;;4973569;28;20215;-77
2022/01/23 08:29:39;;;;;;;38.93;24.43;;;;;;;;;;4958904;28;20174;-77
2022/01/23 08:32:05;;;;;;;40.77;24.20;;;;;;;;;;4975229;28;20204;-78
2022/01/23 08:34:32;;;;;;;37.50;24.93;;;;;;;;;;4976578;28;20191;-78
2022/01/23 08:36:58;;;;;;;40.13;24.50;;;;;;;;;;4990602;28;20303;-77
2022/01/23 08:39:25;;;;;;;43.63;26.77;;;;;;;;;;4971764;28;20189;-77
2022/01/23 08:41:52;;;;;;;36.27;24.57;;;;;;;;;;4964410;28;20331;-78
2022/01/23 08:44:22;;;;;;;38.13;25.23;;;;;;;;;;4972016;28;20238;-77
2022/01/23 08:46:49;;;;;;;36.27;25.40;;;;;;;;;;4972481;28;20204;-77
2022/01/23 08:49:17;;;;;;;39.47;26.47;;;;;;;;;;4975747;28;20184;-77
2022/01/23 08:51:44;;;;;;;40.83;26.17;;;;;;;;;;4970808;28;20260;-77
2022/01/23 08:54:10;;;;;;;37.40;25.03;;;;;;;;;;4966879;28;20685;-78
2022/01/23 08:56:36;;;;;;;50.70;28.53;;;;;;;;;;4969506;28;20615;-77
2022/01/23 08:59:02;;;;;;;37.87;25.00;;;;;;;;;;4975773;28;20208;-78
2022/01/23 09:01:29;;;;;;;39.00;26.07;;;;;;;;;;4974660;28;20185;-77
2022/01/23 09:03:55;;;;;;;40.67;27.07;;;;;;;;;;4974285;28;20173;-78
2022/01/23 09:06:22;;;;;;;39.07;25.23;;;;;;;;;;4971155;28;20224;-77
2022/01/23 09:08:48;;;;;;;40.07;26.73;;;;;;;;;;4966295;28;21112;-78
2022/01/23 09:14:10;;;;;;;36.57;24.20;;;;;;;;;;4956179;28;20189;-77
2022/01/23 09:16:40;;;;;;;35.87;24.60;;;;;;;;;;4955803;28;20207;-77
2022/01/23 09:19:06;;;;;;;42.07;27.07;;;;;;;;;;4956104;28;20181;-78
2022/01/23 09:21:33;;;;;;;46.37;27.90;;;;;;;;;;4939128;29;20668;-78
2022/01/23 09:24:00;;;;;;;37.53;25.63;;;;;;;;;;4954813;28;20544;-77
2022/01/23 09:26:27;;;;;;;39.33;26.10;;;;;;;;;;4967954;28;20216;-77
2022/01/23 09:28:56;;;;;;;39.90;25.67;;;;;;;;;;4975162;28;20173;-78
2022/01/23 09:32:05;;;;;;;39.93;25.73;;;;;;;;;;4975412;28;20192;-79
2022/01/23 09:34:12;;;;;;;35.70;23.97;;;;;;;;;;4968854;28;20197;-78
2022/01/23 09:36:38;;;;;;;38.87;27.27;;;;;;;;;;4974246;28;20216;-78
2022/01/23 09:39:05;;;;;;;37.70;25.90;;;;;;;;;;4974879;28;20251;-78
2022/01/23 09:41:32;;;;;;;36.60;24.80;;;;;;;;;;4969142;28;20191;-78
2022/01/23 09:44:02;;;;;;;38.03;25.07;;;;;;;;;;4964838;28;20191;-77
2022/01/23 09:46:28;;;;;;;40.23;24.87;;;;;;;;;;4960645;28;20251;-78
2022/01/23 09:48:54;;;;;;;41.60;28.63;;;;;;;;;;4962158;28;20268;-78
2022/01/23 09:51:22;;;;;;;41.33;26.73;;;;;;;;;;4963147;28;20181;-77
2022/01/23 09:53:52;;;;;;;42.57;27.87;;;;;;;;;;4955371;28;20177;-78
2022/01/23 09:56:24;;;;;;;42.53;26.97;;;;;;;;;;4974340;28;20209;-78
2022/01/23 09:58:51;;;;;;;43.80;29.20;;;;;;;;;;4974899;28;20184;-78
2022/01/23 10:01:18;;;;;;;42.07;27.13;;;;;;;;;;4973445;28;20188;-77
2022/01/23 10:03:44;;;;;;;46.83;27.77;;;;;;;;;;4971689;28;20573;-77
2022/01/23 10:06:10;;;;;;;40.33;25.47;;;;;;;;;;4960531;28;20351;-78
2022/01/23 10:08:36;;;;;;;41.60;24.93;;;;;;;;;;4974442;28;20176;-78
2022/01/23 10:11:08;;;;;;;42.53;28.13;;;;;;;;;;4972551;28;20553;-78
2022/01/23 10:13:35;;;;;;;45.20;30.00;;;;;;;;;;4972781;28;20247;-78
2022/01/23 10:16:01;;;;;;;44.97;29.20;;;;;;;;;;4974176;28;20169;-77
2022/01/23 10:18:27;;;;;;;42.83;28.30;;;;;;;;;;4968914;28;20240;-78
2022/01/23 10:20:54;;;;;;;44.60;29.60;;;;;;;;;;4955963;28;20684;-77
2022/01/23 10:23:20;;;;;;;44.30;29.63;;;;;;;;;;4968157;28;20235;-77
2022/01/23 10:25:48;;;;;;;45.77;30.03;;;;;;;;;;4963182;28;20738;-77
2022/01/23 10:28:20;;;;;;;46.17;30.27;;;;;;;;;;4981989;28;20260;-78
2022/01/23 10:30:48;;;;;;;39.60;27.27;;;;;;;;;;4973687;28;21625;-77
2022/01/23 10:33:17;;;;;;;40.67;28.20;;;;;;;;;;4970493;28;20196;-77
2022/01/23 10:35:58;;;;;;;42.60;29.20;;;;;;;;;;4971462;28;20675;-78
2022/01/23 10:38:26;;;;;;;39.33;26.90;;;;;;;;;;4968817;28;20562;-77
2022/01/23 10:41:05;;;;;;;43.97;29.40;;;;;;;;;;4973799;28;20197;-77
2022/01/23 10:49:01;;;;;;;46.03;30.43;;;;;;;;;;4973287;28;20181;-78
2022/01/23 10:51:29;;;;;;;42.67;30.20;;;;;;;;;;4972950;28;20589;-78
2022/01/23 10:54:04;;;;;;;41.80;28.90;;;;;;;;;;4970153;28;20235;-77
2022/01/23 10:56:32;;;;;;;41.07;27.67;;;;;;;;;;4970586;28;20643;-77
2022/01/23 10:58:59;;;;;;;43.30;28.67;;;;;;;;;;4968698;28;20243;-77
2022/01/23 11:01:27;;;;;;;39.07;27.70;;;;;;;;;;4967831;28;20184;-76
2022/01/23 11:04:11;;;;;;;38.97;26.83;;;;;;;;;;4969589;28;20479;-77
2022/01/23 11:06:53;;;;;;;38.83;26.50;;;;;;;;;;4968200;28;20208;-77
2022/01/23 11:09:20;;;;;;;42.17;27.77;;;;;;;;;;4968141;28;20184;-74
2022/01/23 11:11:49;;;;;;;39.57;28.37;;;;;;;;;;4970275;28;20188;-78
2022/01/23 11:19:47;;;;;;;37.37;26.43;;;;;;;;;;4962098;28;20578;-77
2022/01/23 11:22:17;;;;;;;43.13;28.97;;;;;;;;;;4966885;28;20716;-76
2022/01/23 11:24:45;;;;;;;38.10;26.33;;;;;;;;;;4988896;28;20679;-77
2022/01/23 11:27:12;;;;;;;42.07;26.90;;;;;;;;;;4976484;28;20662;-78
2022/01/23 11:29:52;;;;;;;44.30;28.07;;;;;;;;;;4977826;28;20528;-77
2022/01/23 11:32:19;;;;;;;44.20;27.70;;;;;;;;;;4950642;28;20177;-77
2022/01/23 11:34:46;;;;;;;43.37;28.17;;;;;;;;;;4952958;28;20173;-77
2022/01/23 11:37:15;;;;;;;42.50;28.27;;;;;;;;;;4963232;28;20270;-77
2022/01/23 11:39:54;;;;;;;40.73;28.77;;;;;;;;;;4972453;28;20181;-77
2022/01/23 11:56:46;;;;;;;38.80;26.70;;;;;;;;;;4953530;28;20208;-78
2022/01/23 11:59:39;;;;;;;35.03;24.67;;;;;;;;;;4991101;28;20184;-78
2022/01/23 12:02:12;;;;;;;38.43;25.70;;;;;;;;;;4960308;28;20172;-78
2022/01/23 12:04:39;;;;;;;36.70;26.27;;;;;;;;;;4954519;28;20189;-78
2022/01/23 12:07:17;;;;;;;38.80;26.13;;;;;;;;;;4953528;28;20223;-78
2022/01/23 12:10:03;;;;;;;38.37;26.43;;;;;;;;;;4987623;28;20275;-77
2022/01/23 12:12:39;;;;;;;38.03;24.90;;;;;;;;;;5004121;28;20243;-77
2022/01/23 12:18:21;;;;;;;37.00;25.70;;;;;;;;;;4960324;28;20208;-78
2022/01/23 12:20:48;;;;;;;39.77;26.57;;;;;;;;;;4973119;28;20192;-78
2022/01/23 12:23:15;;;;;;;37.53;25.87;;;;;;;;;;4971325;28;20180;-78
2022/01/23 12:25:45;;;;;;;37.43;26.27;;;;;;;;;;4987015;28;20200;-78
2022/01/23 12:28:17;;;;;;;38.23;26.03;;;;;;;;;;4972480;28;20211;-78
2022/01/23 12:30:44;;;;;;;32.70;23.17;;;;;;;;;;4972420;28;20595;-78
2022/01/23 12:33:31;;;;;;;38.83;25.70;;;;;;;;;;4972813;28;20199;-79
2022/01/23 12:35:59;;;;;;;34.30;24.17;;;;;;;;;;4952857;28;20660;-78
2022/01/23 12:38:34;;;;;;;39.17;26.40;;;;;;;;;;4967948;28;20212;-78
2022/01/23 12:41:30;;;;;;;35.60;25.30;;;;;;;;;;4952312;29;20183;-78
2022/01/23 12:44:01;;;;;;;35.70;23.90;;;;;;;;;;4951313;29;20197;-78
2022/01/23 12:46:29;;;;;;;37.13;26.53;;;;;;;;;;4952902;28;20217;-78
2022/01/23 12:48:56;;;;;;;34.47;24.67;;;;;;;;;;4951813;28;20193;-78
2022/01/23 12:51:23;;;;;;;41.80;27.70;;;;;;;;;;4960402;28;20177;-78
2022/01/23 12:53:49;;;;;;;38.63;25.57;;;;;;;;;;4972437;28;20264;-78
2022/01/23 12:56:15;;;;;;;35.00;24.57;;;;;;;;;;4986737;28;20212;-78
2022/01/23 12:58:43;;;;;;;36.00;24.63;;;;;;;;;;4986971;28;20189;-78
2022/01/23 13:01:19;;;;;;;37.57;23.90;;;;;;;;;;4972158;28;20268;-78
2022/01/23 13:03:52;;;;;;;37.40;26.23;;;;;;;;;;4950118;28;20702;-78
2022/01/23 13:06:28;;;;;;;36.67;25.33;;;;;;;;;;4971085;28;20223;-78
2022/01/23 13:09:12;;;;;;;42.03;27.83;;;;;;;;;;4963290;28;20176;-79
2022/01/23 13:11:54;;;;;;;39.20;25.87;;;;;;;;;;4958442;28;20825;-79
2022/01/23 13:14:27;;;;;;;37.70;24.73;;;;;;;;;;4972028;28;20176;-78
2022/01/23 13:17:34;;;;;;;38.67;24.73;;;;;;;;;;4964388;28;20591;-78
2022/01/23 13:28:54;;;;;;;36.60;25.23;;;;;;;;;;4966915;28;20223;-79
2022/01/23 13:30:53;;;;;;;38.50;25.67;;;;;;;;;;4973014;28;20196;-80
2022/01/23 13:33:25;;;;;;;37.83;24.23;;;;;;;;;;5006155;28;20263;-78
2022/01/23 13:35:53;;;;;;;39.87;26.17;;;;;;;;;;4971556;28;20181;-78
2022/01/23 13:38:20;;;;;;;36.13;24.80;;;;;;;;;;4974824;28;20799;-78
2022/01/23 13:40:56;;;;;;;34.97;24.17;;;;;;;;;;4975666;28;20187;-77
2022/01/23 13:49:55;;;;;;;34.37;23.10;;;;;;;;;;4974407;28;20185;-79
2022/01/23 13:52:08;;;;;;;43.83;28.87;;;;;;;;;;4975056;28;20185;-76
2022/01/23 14:00:02;;;;;;;37.33;25.53;;;;;;;;;;4955534;28;20189;-78
2022/01/23 14:02:38;;;;;;;36.63;25.30;;;;;;;;;;4969836;28;20201;-78
2022/01/23 14:05:09;;;;;;;37.27;25.30;;;;;;;;;;4982731;28;20219;-78
2022/01/23 14:07:36;;;;;;;37.87;25.70;;;;;;;;;;4963099;28;20212;-78
2022/01/23 14:10:13;;;;;;;35.23;24.30;;;;;;;;;;4974028;28;20271;-78
2022/01/23 14:12:40;;;;;;;33.43;23.30;;;;;;;;;;4940408;28;20203;-78
2022/01/23 14:15:13;;;;;;;32.40;23.27;;;;;;;;;;4975039;28;20687;-78
2022/01/23 14:17:39;;;;;;;32.23;21.07;;;;;;;;;;4972870;28;20692;-78
2022/01/23 14:20:08;;;;;;;36.47;24.40;;;;;;;;;;4971449;28;20235;-78
2022/01/23 14:22:35;;;;;;;33.00;22.63;;;;;;;;;;4970800;28;20204;-78
2022/01/23 14:25:09;;;;;;;33.93;21.67;;;;;;;;;;4972167;28;20187;-78
2022/01/23 14:27:35;;;;;;;30.30;21.00;;;;;;;;;;4972842;28;20216;-78
2022/01/23 14:30:06;;;;;;;32.93;21.47;;;;;;;;;;4973584;28;20587;-78
2022/01/23 14:32:48;;;;;;;30.77;20.73;;;;;;;;;;4974167;28;20211;-82
2022/01/23 14:35:20;;;;;;;31.57;21.90;;;;;;;;;;4988823;28;20190;-81
2022/01/23 14:37:47;;;;;;;27.90;19.33;;;;;;;;;;4981828;28;20240;-80
2022/01/23 14:40:19;;;;;;;31.97;21.57;;;;;;;;;;4984168;28;20180;-80
2022/01/23 14:43:06;;;;;;;33.40;21.70;;;;;;;;;;4981971;28;20684;-81
2022/01/23 14:45:54;;;;;;;31.93;21.53;;;;;;;;;;4975282;28;20239;-79
2022/01/23 14:48:20;;;;;;;34.07;22.00;;;;;;;;;;4972839;28;20287;-79
2022/01/23 14:50:50;;;;;;;31.70;21.33;;;;;;;;;;4974020;28;20259;-78
2022/01/23 14:53:19;;;;;;;33.87;21.17;;;;;;;;;;4974053;28;20193;-78
2022/01/23 14:55:47;;;;;;;28.33;19.90;;;;;;;;;;4988418;28;20191;-78
2022/01/23 14:58:14;;;;;;;33.77;22.70;;;;;;;;;;4974878;28;20207;-76
2022/01/23 15:00:41;;;;;;;31.63;21.03;;;;;;;;;;4973013;28;20204;-78
2022/01/23 15:03:08;;;;;;;33.13;19.47;;;;;;;;;;5005704;28;20550;-75
2022/01/23 15:05:36;;;;;;;28.80;18.90;;;;;;;;;;5003839;28;20235;-77
2022/01/23 15:08:05;;;;;;;22.63;15.40;;;;;;;;;;4974535;28;20200;-77
2022/01/23 15:10:31;;;;;;;21.73;14.20;;;;;;;;;;4968168;28;20196;-78
2022/01/23 15:12:58;;;;;;;18.90;12.67;;;;;;;;;;4972805;28;20185;-80
2022/01/23 15:15:24;;;;;;;15.23;10.87;;;;;;;;;;4955711;28;20710;-78
2022/01/23 15:17:50;;;;;;;14.23;10.50;;;;;;;;;;4970531;28;20205;-78
2022/01/23 15:20:17;;;;;;;12.97;9.07;;;;;;;;;;4974750;28;20192;-78
2022/01/23 15:22:44;;;;;;;12.67;9.30;;;;;;;;;;4973285;28;20202;-79
2022/01/23 15:25:12;;;;;;;11.57;8.60;;;;;;;;;;4976320;28;20184;-79
2022/01/23 15:27:38;;;;;;;13.03;8.70;;;;;;;;;;4973801;28;20242;-79
2022/01/23 15:30:06;;;;;;;13.23;8.70;;;;;;;;;;4980475;28;20376;-81
2022/01/23 15:32:32;;;;;;;11.53;8.40;;;;;;;;;;4973594;28;20172;-83
2022/01/23 15:34:59;;;;;;;10.50;8.30;;;;;;;;;;5008201;28;20173;-80
2022/01/23 15:37:25;;;;;;;10.00;7.73;;;;;;;;;;4965356;28;20224;-81
2022/01/23 15:39:51;;;;;;;11.37;8.50;;;;;;;;;;4984315;28;20192;-80
2022/01/23 15:42:18;;;;;;;11.50;8.87;;;;;;;;;;4974171;28;20203;-80
2022/01/23 15:44:44;;;;;;;11.77;8.80;;;;;;;;;;4967341;28;20263;-80
2022/01/23 15:47:11;;;;;;;12.00;8.60;;;;;;;;;;4972727;28;20314;-80
2022/01/23 15:49:37;;;;;;;11.27;7.93;;;;;;;;;;4988466;28;20188;-81
2022/01/23 15:52:04;;;;;;;11.03;8.27;;;;;;;;;;4988746;28;20173;-80
2022/01/23 15:54:30;;;;;;;11.63;8.83;;;;;;;;;;4973684;28;20177;-80
2022/01/23 15:56:57;;;;;;;11.23;9.00;;;;;;;;;;4973936;28;20287;-80
2022/01/23 15:59:24;;;;;;;13.37;10.03;;;;;;;;;;4976628;28;20176;-80
2022/01/23 16:01:50;;;;;;;14.57;9.67;;;;;;;;;;4981074;28;20712;-80
2022/01/23 16:04:18;;;;;;;14.50;10.03;;;;;;;;;;4979984;28;20192;-80
2022/01/23 16:06:44;;;;;;;12.77;9.80;;;;;;;;;;4976082;28;20212;-80
2022/01/23 16:09:12;;;;;;;31.73;17.93;;;;;;;;;;4978721;28;20244;-80
2022/01/23 16:11:38;;;;;;;32.50;18.90;;;;;;;;;;4975942;28;20184;-80
2022/01/23 16:14:05;;;;;;;27.77;17.90;;;;;;;;;;4978368;28;20274;-80
2022/01/23 16:16:31;;;;;;;29.17;16.80;;;;;;;;;;4984664;28;20750;-80
2022/01/23 16:18:57;;;;;;;19.13;13.87;;;;;;;;;;4960537;28;20688;-80
2022/01/23 16:21:24;;;;;;;18.03;12.37;;;;;;;;;;4975497;28;20192;-80
2022/01/23 16:23:51;;;;;;;16.23;11.67;;;;;;;;;;4977299;28;20184;-80
2022/01/23 16:26:17;;;;;;;13.77;10.30;;;;;;;;;;4976101;28;20208;-81
2022/01/23 16:28:44;;;;;;;14.27;10.13;;;;;;;;;;4983085;28;20184;-81
2022/01/23 16:31:11;;;;;;;12.17;9.57;;;;;;;;;;4959092;28;20636;-80
2022/01/23 16:33:38;;;;;;;10.53;7.97;;;;;;;;;;4962577;28;20544;-80
2022/01/23 16:36:06;;;;;;;12.57;8.57;;;;;;;;;;4953389;28;20200;-80
2022/01/23 16:38:33;;;;;;;11.63;8.80;;;;;;;;;;4972510;28;20753;-79
2022/01/23 16:40:59;;;;;;;11.63;8.73;;;;;;;;;;4973487;28;20189;-79
2022/01/23 16:43:27;;;;;;;12.73;8.23;;;;;;;;;;4974427;28;20185;-79
2022/01/23 16:45:53;;;;;;;13.13;9.53;;;;;;;;;;4960057;28;20315;-79
2022/01/23 16:48:20;;;;;;;12.53;9.00;;;;;;;;;;4977916;28;20173;-79
2022/01/23 16:50:46;;;;;;;12.57;8.57;;;;;;;;;;4996412;28;20180;-79
2022/01/23 16:53:13;;;;;;;12.03;8.23;;;;;;;;;;4995614;28;20191;-79
2022/01/23 16:55:39;;;;;;;11.77;8.20;;;;;;;;;;4996427;28;20196;-79
2022/01/23 16:58:05;;;;;;;12.03;8.37;;;;;;;;;;4997337;28;20196;-79
2022/01/23 17:00:31;;;;;;;13.93;8.87;;;;;;;;;;4980569;28;20516;-79
2022/01/23 17:02:59;;;;;;;12.03;8.60;;;;;;;;;;4977224;28;20830;-79
2022/01/23 17:05:25;;;;;;;12.20;8.90;;;;;;;;;;4996200;28;20176;-80
2022/01/23 17:07:51;;;;;;;11.53;8.00;;;;;;;;;;4996944;28;20762;-80
2022/01/23 17:10:18;;;;;;;11.03;8.07;;;;;;;;;;4986423;28;20644;-80
2022/01/23 17:12:44;;;;;;;12.43;8.70;;;;;;;;;;4959938;28;20308;-80
2022/01/23 17:15:10;;;;;;;11.87;8.50;;;;;;;;;;4976038;28;20192;-80
2022/01/23 17:17:36;;;;;;;12.70;9.20;;;;;;;;;;4959976;28;20220;-80
2022/01/23 17:20:03;;;;;;;11.77;8.53;;;;;;;;;;4984194;28;20238;-80
2022/01/23 17:22:29;;;;;;;13.60;9.27;;;;;;;;;;4996707;28;20184;-80
2022/01/23 17:24:55;;;;;;;11.93;8.27;;;;;;;;;;4995995;28;20172;-80
2022/01/23 17:27:23;;;;;;;14.33;9.57;;;;;;;;;;4963983;28;20330;-80
2022/01/23 17:29:50;;;;;;;13.37;9.53;;;;;;;;;;4996063;28;20700;-80
2022/01/23 17:32:20;;;;;;;14.83;10.33;;;;;;;;;;4996336;28;20180;-80
2022/01/23 17:34:46;;;;;;;16.23;10.93;;;;;;;;;;4996488;28;20183;-80
2022/01/23 17:37:13;;;;;;;18.07;11.97;;;;;;;;;;4996566;28;20222;-80
2022/01/23 17:39:39;;;;;;;19.03;12.93;;;;;;;;;;4988494;28;20266;-80
2022/01/23 17:42:09;;;;;;;24.17;16.40;;;;;;;;;;4974997;28;20556;-80
2022/01/23 17:44:37;;;;;;;19.97;14.10;;;;;;;;;;4976190;28;20278;-80
2022/01/23 17:47:18;;;;;;;20.87;13.93;;;;;;;;;;4976834;28;20216;-80
2022/01/23 17:49:53;;;;;;;19.17;13.40;;;;;;;;;;4977215;28;20164;-80